createdAt,value
2023-02-23T00:00:28.483Z,8.80
2023-02-23T00:03:01.844Z,8.70
2023-02-23T00:05:35.284Z,8.60
2023-02-23T00:08:02.258Z,8.60
2023-02-23T00:10:32.104Z,8.70
2023-02-23T00:12:59.829Z,8.80
2023-02-23T00:15:27.956Z,8.80
2023-02-23T00:22:07.802Z,8.80
2023-02-23T00:24:36.680Z,8.80
2023-02-23T00:27:21.017Z,8.80
2023-02-23T00:29:49.739Z,8.70
2023-02-23T00:32:20.901Z,8.70
2023-02-23T00:34:51.374Z,8.60
2023-02-23T00:37:19.227Z,8.50
2023-02-23T00:39:48.725Z,8.50
2023-02-23T00:42:16.099Z,8.50
2023-02-23T00:44:43.245Z,8.40
2023-02-23T00:47:10.422Z,8.40
2023-02-23T00:49:37.390Z,8.40
2023-02-23T00:52:05.215Z,8.40
2023-02-23T00:54:57.404Z,8.30
2023-02-23T00:57:24.455Z,8.30
2023-02-23T00:59:51.440Z,8.30
2023-02-23T01:02:18.413Z,8.30
2023-02-23T01:04:45.455Z,8.40
2023-02-23T01:07:13.146Z,8.30
2023-02-23T01:09:40.759Z,8.40
2023-02-23T01:12:08.221Z,8.40
2023-02-23T01:14:37.716Z,8.40
2023-02-23T01:17:04.775Z,8.40
2023-02-23T01:19:34.194Z,8.40
2023-02-23T01:22:03.772Z,8.40
2023-02-23T01:24:31.006Z,8.40
2023-02-23T01:26:57.977Z,8.40
2023-02-23T01:29:24.944Z,8.40
2023-02-23T01:31:52.074Z,8.50
2023-02-23T01:34:21.777Z,8.50
2023-02-23T01:36:48.821Z,8.50
2023-02-23T01:39:18.988Z,8.50
2023-02-23T01:41:46.300Z,8.60
2023-02-23T01:44:15.106Z,8.60
2023-02-23T01:46:45.458Z,8.60
2023-02-23T01:49:20.474Z,8.50
2023-02-23T01:51:52.416Z,8.40
2023-02-23T01:54:24.680Z,8.40
2023-02-23T01:56:58.471Z,8.30
2023-02-23T01:59:34.297Z,8.30
2023-02-23T02:02:01.748Z,8.30
2023-02-23T02:04:33.669Z,8.40
2023-02-23T02:07:03.845Z,8.40
2023-02-23T02:09:37.929Z,8.40
2023-02-23T02:12:08.544Z,8.50
2023-02-23T02:14:36.313Z,8.50
2023-02-23T02:17:05.965Z,8.60
2023-02-23T02:19:45.797Z,8.70
2023-02-23T02:22:50.416Z,8.70
2023-02-23T02:25:45.215Z,8.80
2023-02-23T02:28:27.216Z,8.80
2023-02-23T02:31:03.334Z,8.90
2023-02-23T02:33:37.988Z,8.90
2023-02-23T02:36:34.339Z,8.90
2023-02-23T02:39:24.091Z,8.90
2023-02-23T02:41:56.480Z,8.90
2023-02-23T02:44:42.267Z,8.90
2023-02-23T02:47:16.445Z,8.80
2023-02-23T02:50:09.589Z,8.70
2023-02-23T02:52:55.869Z,8.60
2023-02-23T02:55:27.852Z,8.60
2023-02-23T02:57:59.120Z,8.70
2023-02-23T03:00:56.278Z,8.70
2023-02-23T03:03:57.769Z,8.80
2023-02-23T03:06:57.592Z,8.90
2023-02-23T03:09:57.563Z,8.90
2023-02-23T03:13:05.581Z,9.00
2023-02-23T03:16:32.309Z,9.00
2023-02-23T03:19:20.681Z,9.00
2023-02-23T03:22:16.420Z,9.00
2023-02-23T03:25:30.458Z,9.00
2023-02-23T03:28:17.231Z,8.90
2023-02-23T03:31:08.601Z,9.00
2023-02-23T03:34:04.552Z,9.00
2023-02-23T03:36:55.129Z,9.10
2023-02-23T03:40:15.906Z,9.00
2023-02-23T03:43:03.928Z,9.00
2023-02-23T03:45:49.886Z,9.00
2023-02-23T03:48:40.221Z,9.00
2023-02-23T03:51:28.015Z,9.10
2023-02-23T03:54:28.413Z,9.10
2023-02-23T03:57:18.015Z,9.10
2023-02-23T04:00:08.479Z,9.10
2023-02-23T04:03:00.956Z,9.20
2023-02-23T04:05:48.233Z,9.20
2023-02-23T04:08:37.690Z,9.20
2023-02-23T04:11:37.500Z,9.20
2023-02-23T04:14:05.466Z,9.20
2023-02-23T04:16:32.817Z,9.20
2023-02-23T04:18:59.913Z,9.20
2023-02-23T04:21:26.875Z,9.20
2023-02-23T04:23:53.804Z,9.20
2023-02-23T04:26:20.763Z,9.10
2023-02-23T04:28:47.689Z,9.10
2023-02-23T04:31:14.716Z,9.10
2023-02-23T04:33:41.670Z,9.10
2023-02-23T04:36:08.758Z,9.10
2023-02-23T04:38:35.720Z,9.00
2023-02-23T04:41:02.664Z,8.90
2023-02-23T04:43:29.645Z,8.90
2023-02-23T04:45:56.681Z,8.90
2023-02-23T04:48:25.211Z,9.00
2023-02-23T04:50:53.680Z,8.90
2023-02-23T04:53:20.735Z,8.90
2023-02-23T04:55:47.749Z,8.90
2023-02-23T04:58:14.706Z,8.80
2023-02-23T05:00:42.101Z,8.90
2023-02-23T05:03:09.734Z,8.90
2023-02-23T05:05:37.064Z,8.90
2023-02-23T05:08:04.084Z,8.90
2023-02-23T05:10:31.037Z,8.90
2023-02-23T05:12:58.291Z,8.90
2023-02-23T05:15:25.245Z,9.00
2023-02-23T05:17:52.198Z,9.00
2023-02-23T05:20:19.176Z,8.90
2023-02-23T05:22:46.232Z,9.00
2023-02-23T05:25:13.264Z,9.00
2023-02-23T05:27:40.717Z,9.00
2023-02-23T05:30:09.966Z,8.90
2023-02-23T05:32:37.167Z,8.90
2023-02-23T05:35:04.539Z,8.90
2023-02-23T05:37:31.539Z,8.80
2023-02-23T05:39:58.461Z,8.70
2023-02-23T05:42:25.556Z,8.60
2023-02-23T05:44:52.499Z,8.60
2023-02-23T05:47:19.460Z,8.70
2023-02-23T05:49:46.555Z,8.70
2023-02-23T05:52:13.657Z,8.60
2023-02-23T05:54:40.639Z,8.50
2023-02-23T05:57:08.398Z,8.50
2023-02-23T05:59:35.545Z,8.50
2023-02-23T06:02:04.875Z,8.50
2023-02-23T06:04:48.205Z,8.50
2023-02-23T06:07:15.979Z,8.50
2023-02-23T06:09:44.494Z,8.50
2023-02-23T06:12:11.662Z,8.50
2023-02-23T06:14:38.702Z,8.60
2023-02-23T06:17:05.833Z,8.70
2023-02-23T06:19:32.960Z,8.70
2023-02-23T06:22:00.128Z,8.80
2023-02-23T06:24:27.131Z,8.80
2023-02-23T06:26:54.241Z,8.80
2023-02-23T06:29:21.190Z,8.90
2023-02-23T06:31:48.385Z,8.90
2023-02-23T06:34:15.410Z,9.00
2023-02-23T06:36:43.140Z,9.00
2023-02-23T06:39:11.631Z,9.00
2023-02-23T06:41:38.638Z,9.00
2023-02-23T06:44:05.762Z,8.90
2023-02-23T06:46:33.807Z,8.90
2023-02-23T06:49:00.865Z,8.90
2023-02-23T06:51:27.870Z,8.90
2023-02-23T06:53:54.789Z,8.90
2023-02-23T06:56:22.079Z,9.00
2023-02-23T06:58:49.259Z,9.00
2023-02-23T07:01:17.135Z,9.00
2023-02-23T07:03:44.341Z,8.90
2023-02-23T07:06:11.314Z,8.90
2023-02-23T07:08:38.865Z,8.90
2023-02-23T07:12:04.359Z,8.90
2023-02-23T07:14:31.345Z,8.90
2023-02-23T07:16:58.408Z,8.80
2023-02-23T07:19:25.729Z,8.80
2023-02-23T07:21:53.134Z,8.90
2023-02-23T07:24:20.121Z,8.80
2023-02-23T07:26:49.377Z,8.80
2023-02-23T07:29:16.580Z,8.70
2023-02-23T07:31:43.763Z,8.70
2023-02-23T07:34:10.815Z,8.70
2023-02-23T07:36:38.198Z,8.70
2023-02-23T07:39:05.621Z,8.60
2023-02-23T07:41:32.857Z,8.60
2023-02-23T07:44:00.546Z,8.60
2023-02-23T07:46:27.487Z,8.60
2023-02-23T07:48:54.407Z,8.60
2023-02-23T07:51:21.672Z,8.50
2023-02-23T07:53:49.688Z,8.40
2023-02-23T07:56:16.690Z,8.40
2023-02-23T07:58:44.576Z,8.40
2023-02-23T08:01:12.897Z,8.50
2023-02-23T08:03:40.034Z,8.50
2023-02-23T08:06:07.569Z,8.50
2023-02-23T08:08:35.566Z,8.50
2023-02-23T08:11:05.049Z,8.60
2023-02-23T08:13:32.704Z,8.60
2023-02-23T08:15:59.889Z,8.60
2023-02-23T08:18:27.872Z,8.60
2023-02-23T08:21:02.213Z,8.50
2023-02-23T08:23:34.146Z,8.50
2023-02-23T08:26:02.333Z,8.50
2023-02-23T08:28:30.543Z,8.40
2023-02-23T08:30:59.349Z,8.40
2023-02-23T08:33:26.765Z,8.40
2023-02-23T08:35:53.925Z,8.50
2023-02-23T08:38:21.145Z,8.40
2023-02-23T08:40:48.111Z,8.50
2023-02-23T08:43:16.314Z,8.40
2023-02-23T08:45:43.343Z,8.40
2023-02-23T08:48:10.330Z,8.40
2023-02-23T08:50:37.289Z,8.50
2023-02-23T08:56:55.384Z,8.70
2023-02-23T08:59:22.460Z,8.80
2023-02-23T09:01:49.490Z,8.90
2023-02-23T09:04:16.927Z,8.90
2023-02-23T09:06:44.613Z,9.00
2023-02-23T09:09:11.498Z,9.10
2023-02-23T09:11:38.484Z,9.10
2023-02-23T09:15:12.295Z,9.20
2023-02-23T09:17:39.606Z,9.20
2023-02-23T09:20:07.338Z,9.30
2023-02-23T09:22:36.882Z,9.30
2023-02-23T09:25:05.057Z,9.30
2023-02-23T09:27:32.391Z,9.40
2023-02-23T09:29:59.368Z,9.40
2023-02-23T09:32:26.399Z,9.40
2023-02-23T09:34:53.511Z,9.40
2023-02-23T09:37:20.477Z,9.50
2023-02-23T09:39:48.901Z,9.60
2023-02-23T09:42:49.152Z,9.70
2023-02-23T09:45:36.779Z,9.70
2023-02-23T09:48:12.491Z,9.70
2023-02-23T09:50:42.187Z,9.60
2023-02-23T09:53:28.401Z,9.60
2023-02-23T09:55:58.392Z,9.70
2023-02-23T09:58:34.018Z,9.80
2023-02-23T10:01:18.253Z,9.80
2023-02-23T10:04:07.135Z,9.90
2023-02-23T10:06:34.885Z,10.00
2023-02-23T10:09:41.073Z,10.00
2023-02-23T10:12:11.915Z,10.00
2023-02-23T10:15:41.490Z,10.00
2023-02-23T10:18:46.419Z,10.10
2023-02-23T10:21:19.628Z,10.20
2023-02-23T10:23:53.719Z,10.30
2023-02-23T10:26:25.158Z,10.40
2023-02-23T10:29:33.385Z,10.40
2023-02-23T10:32:06.331Z,10.40
2023-02-23T10:34:33.927Z,10.50
2023-02-23T10:37:02.306Z,10.50
2023-02-23T10:39:31.087Z,10.50
2023-02-23T10:42:02.780Z,10.50
2023-02-23T10:44:29.965Z,10.50
2023-02-23T10:47:09.420Z,10.50
2023-02-23T10:49:45.597Z,10.50
2023-02-23T10:52:15.833Z,10.60
2023-02-23T10:54:48.900Z,10.60
2023-02-23T10:57:40.193Z,10.70
2023-02-23T11:00:17.046Z,10.70
2023-02-23T11:02:45.149Z,10.70
2023-02-23T11:05:35.162Z,10.80
2023-02-23T11:08:12.383Z,10.90
2023-02-23T11:10:39.690Z,10.90
2023-02-23T11:13:06.689Z,10.80
2023-02-23T11:15:50.607Z,10.70
2023-02-23T11:18:24.936Z,10.70
2023-02-23T11:20:52.798Z,10.60
2023-02-23T11:23:24.453Z,10.70
2023-02-23T11:25:57.073Z,10.70
2023-02-23T11:28:34.928Z,10.80
2023-02-23T11:31:08.865Z,10.90
2023-02-23T11:33:38.880Z,11.00
2023-02-23T11:36:20.654Z,11.00
2023-02-23T11:38:47.976Z,11.10
2023-02-23T11:41:24.256Z,11.10
2023-02-23T11:43:56.710Z,11.10
2023-02-23T11:46:25.887Z,11.10
2023-02-23T11:49:07.849Z,11.20
2023-02-23T11:51:38.362Z,11.40
2023-02-23T11:54:07.070Z,11.40
2023-02-23T11:56:35.633Z,11.50
2023-02-23T11:59:07.447Z,11.70
2023-02-23T12:01:41.864Z,11.80
2023-02-23T12:04:10.513Z,12.00
2023-02-23T12:06:41.431Z,12.20
2023-02-23T12:09:31.446Z,12.30
2023-02-23T12:12:21.907Z,12.50
2023-02-23T12:14:55.852Z,12.60
2023-02-23T12:17:37.051Z,12.60
2023-02-23T12:20:15.972Z,12.60
2023-02-23T12:22:57.966Z,12.60
2023-02-23T12:25:36.341Z,12.60
2023-02-23T12:28:18.509Z,12.70
2023-02-23T12:31:15.283Z,12.70
2023-02-23T12:33:46.401Z,12.70
2023-02-23T12:36:38.570Z,12.60
2023-02-23T12:39:21.473Z,12.60
2023-02-23T12:42:11.405Z,12.60
2023-02-23T12:45:11.493Z,12.80
2023-02-23T12:48:11.905Z,12.90
2023-02-23T12:50:40.780Z,13.00
2023-02-23T12:53:39.616Z,12.90
2023-02-23T12:56:33.461Z,12.70
2023-02-23T12:59:13.479Z,12.60
2023-02-23T13:02:04.747Z,12.60
2023-02-23T13:05:05.175Z,12.60
2023-02-23T13:07:34.876Z,12.60
2023-02-23T13:10:39.459Z,12.70
2023-02-23T13:13:18.454Z,12.80
2023-02-23T13:16:04.566Z,12.80
2023-02-23T13:19:08.956Z,12.90
2023-02-23T13:21:44.677Z,12.90
2023-02-23T13:24:19.288Z,12.90
2023-02-23T13:27:07.457Z,13.00
2023-02-23T13:29:36.849Z,13.00
2023-02-23T13:32:11.002Z,13.00
2023-02-23T13:35:03.248Z,13.10
2023-02-23T13:38:15.155Z,13.10
2023-02-23T13:41:14.359Z,13.10
2023-02-23T13:44:01.488Z,13.10
2023-02-23T13:46:57.955Z,12.90
2023-02-23T13:49:37.782Z,12.60
2023-02-23T13:52:42.045Z,12.40
2023-02-23T13:55:29.411Z,12.30
2023-02-23T13:58:25.844Z,12.20
2023-02-23T14:01:27.631Z,12.20
2023-02-23T14:03:57.897Z,12.10
2023-02-23T14:06:27.730Z,12.10
2023-02-23T14:08:59.147Z,12.20
2023-02-23T14:11:43.404Z,12.20
2023-02-23T14:14:37.190Z,12.10
2023-02-23T14:17:16.294Z,12.20
2023-02-23T14:20:06.831Z,12.30
2023-02-23T14:22:35.061Z,12.40
2023-02-23T14:25:33.265Z,12.50
2023-02-23T14:28:02.039Z,12.60
2023-02-23T14:30:43.318Z,12.60
2023-02-23T14:33:42.203Z,12.60
2023-02-23T14:36:24.414Z,12.50
2023-02-23T14:39:00.400Z,12.50
2023-02-23T14:41:50.204Z,12.60
2023-02-23T14:44:31.584Z,12.60
2023-02-23T14:47:15.753Z,12.60
2023-02-23T14:49:46.497Z,12.60
2023-02-23T14:52:28.333Z,12.70
2023-02-23T14:55:13.174Z,12.70
2023-02-23T14:57:41.916Z,12.60
2023-02-23T15:00:16.251Z,12.70
2023-02-23T15:03:05.229Z,12.70
2023-02-23T15:05:59.653Z,12.40
2023-02-23T15:08:29.929Z,12.40
2023-02-23T15:11:04.108Z,12.50
2023-02-23T15:16:07.695Z,12.40
2023-02-23T15:19:30.597Z,12.40
2023-02-23T15:21:59.546Z,12.40
2023-02-23T15:24:48.803Z,12.40
2023-02-23T15:27:25.849Z,12.30
2023-02-23T15:29:55.759Z,12.00
2023-02-23T15:32:25.574Z,11.80
2023-02-23T15:34:53.624Z,11.60
2023-02-23T15:37:34.065Z,11.30
2023-02-23T15:40:06.044Z,11.10
2023-02-23T15:42:41.438Z,11.00
2023-02-23T15:45:20.923Z,11.00
2023-02-23T15:47:48.702Z,10.90
2023-02-23T15:50:36.355Z,10.80
2023-02-23T15:53:13.761Z,10.90
2023-02-23T15:56:43.688Z,10.90
2023-02-23T15:59:16.508Z,11.10
2023-02-23T16:01:46.534Z,11.20
2023-02-23T16:04:13.488Z,11.40
2023-02-23T16:06:47.347Z,11.40
2023-02-23T16:09:26.269Z,11.40
2023-02-23T16:12:03.543Z,11.30
2023-02-23T16:14:42.602Z,11.40
2023-02-23T16:17:46.107Z,11.50
2023-02-23T16:20:41.528Z,11.50
2023-02-23T16:23:33.249Z,11.60
2023-02-23T16:26:11.969Z,11.70
2023-02-23T16:28:45.371Z,11.70
2023-02-23T16:31:14.144Z,11.70
2023-02-23T16:33:52.092Z,11.70
2023-02-23T16:36:22.638Z,11.70
2023-02-23T16:38:59.778Z,11.70
2023-02-23T16:41:32.082Z,11.60
2023-02-23T16:44:07.176Z,11.50
2023-02-23T16:46:54.226Z,11.40
2023-02-23T16:49:23.399Z,11.30
2023-02-23T16:51:51.551Z,11.30
2023-02-23T16:54:18.666Z,11.30
2023-02-23T16:56:47.356Z,11.30
2023-02-23T16:59:17.526Z,11.30
2023-02-23T17:01:50.058Z,11.30
2023-02-23T17:04:18.901Z,11.30
2023-02-23T17:06:48.470Z,11.20
2023-02-23T17:09:15.411Z,11.10
2023-02-23T17:11:47.290Z,11.10
2023-02-23T17:14:32.583Z,11.10
2023-02-23T17:17:02.269Z,11.10
2023-02-23T17:19:29.357Z,11.10
2023-02-23T17:21:56.342Z,11.10
2023-02-23T17:24:26.108Z,11.00
2023-02-23T17:26:53.344Z,11.00
2023-02-23T17:29:20.319Z,11.00
2023-02-23T17:31:47.485Z,11.00
2023-02-23T17:34:14.585Z,10.90
2023-02-23T17:36:41.542Z,10.90
2023-02-23T17:39:09.990Z,10.90
2023-02-23T17:41:37.050Z,10.90
2023-02-23T17:44:05.902Z,10.90
2023-02-23T17:46:33.075Z,10.90
2023-02-23T17:49:00.063Z,10.80
2023-02-23T17:51:27.134Z,10.70
2023-02-23T17:53:54.158Z,10.70
2023-02-23T17:56:21.227Z,10.70
2023-02-23T17:58:48.295Z,10.70
2023-02-23T18:01:16.120Z,10.70
2023-02-23T18:03:43.534Z,10.70
2023-02-23T18:06:13.131Z,10.70
2023-02-23T18:08:42.436Z,10.70
2023-02-23T18:11:10.227Z,10.70
2023-02-23T18:13:37.614Z,10.70
2023-02-23T18:16:10.699Z,10.70
2023-02-23T18:18:44.702Z,10.60
2023-02-23T18:21:14.478Z,10.70
2023-02-23T18:23:41.351Z,10.70
2023-02-23T18:26:14.617Z,10.60
2023-02-23T18:28:44.546Z,10.60
2023-02-23T18:31:38.083Z,10.60
2023-02-23T18:34:05.244Z,10.60
2023-02-23T18:36:38.303Z,10.50
2023-02-23T18:39:07.518Z,10.40
2023-02-23T18:41:34.993Z,10.40
2023-02-23T18:44:04.767Z,10.40
2023-02-23T18:46:32.021Z,10.40
2023-02-23T18:48:59.208Z,10.30
2023-02-23T18:51:26.366Z,10.40
2023-02-23T18:53:54.035Z,10.40
2023-02-23T18:56:25.168Z,10.40
2023-02-23T18:58:54.390Z,10.40
2023-02-23T19:01:27.119Z,10.40
2023-02-23T19:03:55.208Z,10.40
2023-02-23T19:06:23.844Z,10.40
2023-02-23T19:08:56.546Z,10.40
2023-02-23T19:11:30.857Z,10.30
2023-02-23T19:14:01.220Z,10.30
2023-02-23T19:16:31.323Z,10.20
2023-02-23T19:18:59.803Z,10.10
2023-02-23T19:21:27.784Z,10.00
2023-02-23T19:23:57.815Z,10.00
2023-02-23T19:26:26.221Z,10.00
2023-02-23T19:28:53.228Z,9.90
2023-02-23T19:31:22.859Z,9.90
2023-02-23T19:33:50.425Z,9.90
2023-02-23T19:36:20.302Z,9.90
2023-02-23T19:38:48.723Z,9.90
2023-02-23T19:41:19.727Z,10.00
2023-02-23T19:43:47.286Z,10.00
2023-02-23T19:46:17.355Z,10.00
2023-02-23T19:48:48.692Z,10.00
2023-02-23T19:51:15.731Z,10.00
2023-02-23T19:53:42.699Z,10.00
2023-02-23T19:56:13.798Z,10.00
2023-02-23T19:58:44.841Z,10.00
2023-02-23T20:01:16.869Z,10.00
2023-02-23T20:03:45.461Z,10.00
2023-02-23T20:06:13.903Z,10.00
2023-02-23T20:08:43.272Z,9.90
2023-02-23T20:11:10.853Z,9.90
2023-02-23T20:13:40.651Z,9.90
2023-02-23T20:16:13.968Z,9.90
2023-02-23T20:18:42.461Z,9.90
2023-02-23T20:21:12.958Z,9.80
2023-02-23T20:23:41.476Z,9.80
2023-02-23T20:26:12.426Z,9.80
2023-02-23T20:28:40.203Z,9.80
2023-02-23T20:31:26.623Z,9.70
2023-02-23T20:33:56.364Z,9.70
2023-02-23T20:36:24.845Z,9.60
2023-02-23T20:38:52.187Z,9.60
2023-02-23T20:41:20.500Z,9.60
2023-02-23T20:43:47.766Z,9.60
2023-02-23T20:46:17.093Z,9.70
2023-02-23T20:48:44.281Z,9.70
2023-02-23T20:51:14.991Z,9.70
2023-02-23T20:53:46.705Z,9.80
2023-02-23T20:56:16.875Z,9.80
2023-02-23T20:58:44.697Z,9.90
2023-02-23T21:01:21.335Z,10.00
2023-02-23T21:03:53.710Z,9.90
2023-02-23T21:06:23.312Z,9.90
2023-02-23T21:08:51.212Z,9.80
2023-02-23T21:11:22.140Z,9.80
2023-02-23T21:13:49.292Z,9.70
2023-02-23T21:16:18.019Z,9.70
2023-02-23T21:18:45.613Z,9.70
2023-02-23T21:21:15.744Z,9.80
2023-02-23T21:23:45.550Z,9.80
2023-02-23T21:26:16.032Z,9.80
2023-02-23T21:28:44.643Z,9.70
2023-02-23T21:31:13.275Z,9.60
2023-02-23T21:33:41.934Z,9.50
2023-02-23T21:36:10.617Z,9.50
2023-02-23T21:38:43.323Z,9.40
2023-02-23T21:41:12.409Z,9.40
2023-02-23T21:43:42.904Z,9.40
2023-02-23T21:46:12.934Z,9.40
2023-02-23T21:48:40.445Z,9.40
2023-02-23T21:51:11.617Z,9.40
2023-02-23T21:53:39.124Z,9.40
2023-02-23T21:56:22.547Z,9.40
2023-02-23T21:58:55.312Z,9.50
2023-02-23T22:01:28.659Z,9.50
2023-02-23T22:03:56.545Z,9.50
2023-02-23T22:06:25.921Z,9.40
2023-02-23T22:08:53.633Z,9.40
2023-02-23T22:11:24.920Z,9.30
2023-02-23T22:13:58.880Z,9.30
2023-02-23T22:16:32.300Z,9.20
2023-02-23T22:19:03.738Z,9.30
2023-02-23T22:21:35.049Z,9.30
2023-02-23T22:24:05.489Z,9.40
2023-02-23T22:26:39.036Z,9.50
2023-02-23T22:29:06.939Z,9.50
2023-02-23T22:31:34.231Z,9.50
2023-02-23T22:34:01.408Z,9.50
2023-02-23T22:36:32.651Z,9.50
2023-02-23T22:39:00.838Z,9.50
2023-02-23T22:41:29.691Z,9.50
2023-02-23T22:43:57.803Z,9.50
2023-02-23T22:46:26.072Z,9.50
2023-02-23T22:48:53.105Z,9.50
2023-02-23T22:51:20.870Z,9.50
2023-02-23T22:53:48.159Z,9.50
2023-02-23T22:56:15.157Z,9.50
2023-02-23T22:58:43.071Z,9.60
2023-02-23T23:01:12.351Z,9.60
2023-02-23T23:03:47.764Z,9.70
2023-02-23T23:06:23.078Z,9.60
2023-02-23T23:08:52.472Z,9.50
2023-02-23T23:11:22.589Z,9.50
2023-02-23T23:13:52.005Z,9.60
2023-02-23T23:16:48.587Z,9.60
2023-02-23T23:20:11.929Z,9.60
2023-02-23T23:23:35.430Z,9.60
2023-02-23T23:26:02.385Z,9.60
2023-02-23T23:28:29.316Z,9.60
2023-02-23T23:30:56.312Z,9.60
2023-02-23T23:33:27.041Z,9.60
2023-02-23T23:35:53.997Z,9.60
2023-02-23T23:38:21.279Z,9.50
2023-02-23T23:40:48.187Z,9.50
2023-02-23T23:43:15.234Z,9.50
2023-02-23T23:45:44.040Z,9.40
2023-02-23T23:49:20.648Z,9.40
2023-02-23T23:51:50.554Z,9.40
2023-02-23T23:54:21.662Z,9.40
2023-02-23T23:56:49.750Z,9.40
2023-02-23T23:59:21.414Z,9.40
